Time;durP1;ratioP1;P1;durP2;ratioP2;P2;SDS_P1;SDS_P2;PMS_P1;PMS_P2;Temp;Humidity;BMP_temperature;BMP_pressure;BME280_temperature;BME280_humidity;BME280_pressure;Samples;Min_cycle;Max_cycle;Signal;HPM_P1;HPM_P2
2021/08/26 12:26:15;;;;;;;6.03;5.15;;;22.00;80.10;;;;;;5038895;28;20420;-92
2021/08/26 12:32:31;;;;;;;5.53;4.72;;;22.00;79.50;;;;;;5038357;28;20033;-94
2021/08/26 12:35:15;;;;;;;5.75;5.15;;;22.10;80.70;;;;;;5017568;28;20399;-93
2021/08/26 12:38:00;;;;;;;9.35;7.07;;;22.10;80.40;;;;;;5021014;28;20076;-91
2021/08/26 12:40:47;;;;;;;9.55;6.43;;;22.20;79.90;;;;;;5040248;28;20033;-91
2021/08/26 12:43:14;;;;;;;8.15;6.57;;;22.20;78.60;;;;;;4992421;28;20046;-94
2021/08/26 12:45:40;;;;;;;7.22;6.13;;;22.20;78.50;;;;;;5022655;28;20032;-90
2021/08/26 12:48:27;;;;;;;8.10;6.88;;;22.20;78.50;;;;;;5024564;28;20033;-91
2021/08/26 12:51:11;;;;;;;8.60;7.03;;;22.20;81.70;;;;;;5023304;28;20123;-92
2021/08/26 12:53:40;;;;;;;7.57;6.05;;;22.10;80.40;;;;;;5039939;28;20081;-91
2021/08/26 12:56:13;;;;;;;7.32;6.05;;;22.10;79.10;;;;;;5021157;28;20040;-90
2021/08/26 12:59:08;;;;;;;7.40;5.63;;;22.00;79.60;;;;;;5017763;28;20022;-89
2021/08/26 13:01:35;;;;;;;7.60;6.20;;;22.00;79.80;;;;;;5023935;28;20084;-91
2021/08/26 13:04:07;;;;;;;6.25;5.07;;;21.90;80.20;;;;;;5025437;28;20032;-89
2021/08/26 13:06:43;;;;;;;6.45;5.25;;;21.90;80.70;;;;;;5023772;28;20500;-93
2021/08/26 13:09:27;;;;;;;5.70;4.70;;;21.90;81.40;;;;;;5039871;28;20036;-92
2021/08/26 13:12:11;;;;;;;33.05;26.33;;;21.80;83.50;;;;;;5028231;28;20033;-93
2021/08/26 13:14:44;;;;;;;12.40;11.10;;;21.90;82.00;;;;;;5022426;28;20120;-87
2021/08/26 13:17:13;;;;;;;12.38;10.68;;;21.90;81.70;;;;;;5043230;28;20037;-90
2021/08/26 13:19:59;;;;;;;9.32;6.78;;;22.00;81.80;;;;;;5059861;28;20013;-94
2021/08/26 13:22:34;;;;;;;7.63;6.25;;;22.10;82.00;;;;;;5041124;28;20093;-85
2021/08/26 13:25:04;;;;;;;8.98;6.43;;;22.20;81.60;;;;;;5021383;28;20124;-84
2021/08/26 13:27:30;;;;;;;6.20;5.25;;;22.20;80.70;;;;;;5026522;28;20060;-88
2021/08/26 13:30:03;;;;;;;7.95;6.93;;;22.30;80.70;;;;;;5041601;28;20101;-89
2021/08/26 13:32:32;;;;;;;6.43;5.38;;;22.40;80.20;;;;;;5023798;28;20025;-95
2021/08/26 13:35:11;;;;;;;6.43;5.05;;;22.40;79.60;;;;;;5020496;28;20080;-96
2021/08/26 13:37:42;;;;;;;6.55;5.20;;;22.40;79.50;;;;;;5013232;28;20065;-96
2021/08/26 13:40:14;;;;;;;;;;;22.40;80.10;;;;;;5026943;28;20114;-96
2021/08/26 13:42:40;;;;;;;5.03;4.13;;;22.40;81.00;;;;;;5041119;28;19952;-94
2021/08/26 13:45:10;;;;;;;5.47;4.38;;;22.40;79.20;;;;;;5020713;28;20045;-92
2021/08/26 13:47:36;;;;;;;5.65;4.30;;;22.40;78.60;;;;;;5005991;28;20026;-95
2021/08/26 13:50:02;;;;;;;5.88;3.90;;;22.40;78.00;;;;;;4993848;28;20038;-96
2021/08/26 13:52:27;;;;;;;4.70;3.35;;;22.40;77.50;;;;;;5014587;28;20033;-94
2021/08/26 13:54:54;;;;;;;3.97;3.15;;;22.30;76.80;;;;;;5016902;28;20460;-96
2021/08/26 13:57:20;;;;;;;4.82;3.30;;;22.40;76.40;;;;;;5009949;28;20125;-96
2021/08/26 13:59:45;;;;;;;5.53;4.25;;;22.40;76.00;;;;;;5002768;28;20049;-93
2021/08/26 14:02:11;;;;;;;5.40;4.00;;;22.30;74.90;;;;;;5001419;28;20369;-94
2021/08/26 14:04:37;;;;;;;6.47;4.32;;;22.30;74.60;;;;;;5020481;28;20063;-93
2021/08/26 14:07:08;;;;;;;4.45;3.70;;;22.20;74.30;;;;;;4972949;28;20138;-96
2021/08/26 14:09:34;;;;;;;4.88;3.75;;;22.10;73.90;;;;;;5009559;28;20038;-95
2021/08/26 14:12:01;;;;;;;4.70;3.80;;;22.10;73.90;;;;;;5033618;28;20026;-86
2021/08/26 14:14:26;;;;;;;4.60;3.50;;;22.10;73.90;;;;;;5030401;28;20048;-88
2021/08/26 14:16:52;;;;;;;3.95;3.30;;;22.00;74.00;;;;;;5003337;28;20034;-89
2021/08/26 14:19:19;;;;;;;4.85;3.70;;;22.00;74.10;;;;;;5033189;28;20333;-88
2021/08/26 14:21:44;;;;;;;4.28;3.70;;;22.00;74.20;;;;;;5015440;28;20053;-89
2021/08/26 14:24:10;;;;;;;4.45;3.70;;;22.00;74.40;;;;;;5029072;28;20092;-89
2021/08/26 14:26:37;;;;;;;5.43;4.30;;;21.90;74.50;;;;;;5021047;28;20048;-89
2021/08/26 14:29:04;;;;;;;5.50;4.28;;;21.90;74.70;;;;;;5048567;28;20044;-88
2021/08/26 14:31:30;;;;;;;4.63;3.60;;;21.90;74.90;;;;;;5029277;28;20545;-89
2021/08/26 14:33:56;;;;;;;5.15;4.10;;;21.90;74.90;;;;;;5051349;28;20031;-88
2021/08/26 14:36:21;;;;;;;5.03;4.07;;;21.80;75.00;;;;;;5047688;28;20100;-89
2021/08/26 14:38:47;;;;;;;4.65;3.97;;;21.80;75.30;;;;;;5041538;28;20021;-87
2021/08/26 14:41:13;;;;;;;4.97;4.22;;;21.70;75.30;;;;;;5059278;28;20029;-87
2021/08/26 14:43:44;;;;;;;4.93;4.10;;;21.70;75.40;;;;;;5058625;28;20014;-89
2021/08/26 14:46:10;;;;;;;5.75;4.38;;;21.60;75.60;;;;;;5042683;28;20013;-89
2021/08/26 14:48:35;;;;;;;5.70;4.20;;;21.60;75.60;;;;;;5048661;28;20044;-89
2021/08/26 14:51:01;;;;;;;5.18;4.18;;;21.50;75.70;;;;;;5040045;28;20057;-88
2021/08/26 14:53:27;;;;;;;5.10;4.00;;;21.40;75.80;;;;;;5015862;28;20034;-88
2021/08/26 14:55:52;;;;;;;6.18;4.45;;;21.40;75.90;;;;;;5034670;28;20045;-89
2021/08/26 14:58:18;;;;;;;6.25;4.35;;;21.30;76.00;;;;;;5016860;28;20140;-88
2021/08/26 15:00:44;;;;;;;5.90;4.35;;;21.30;76.20;;;;;;5004675;28;20032;-89
2021/08/26 15:03:09;;;;;;;5.32;4.40;;;21.20;76.60;;;;;;5008037;28;20048;-88
2021/08/26 15:05:35;;;;;;;4.85;4.30;;;21.10;76.80;;;;;;5011704;28;20022;-89
2021/08/26 15:08:01;;;;;;;5.65;4.35;;;21.10;77.20;;;;;;5022342;28;20026;-86
2021/08/26 15:10:27;;;;;;;6.88;4.85;;;21.00;77.60;;;;;;5022107;28;20393;-89
2021/08/26 15:12:53;;;;;;;6.32;5.22;;;20.90;77.90;;;;;;5021997;28;20025;-87
2021/08/26 15:15:20;;;;;;;5.70;4.70;;;20.90;78.20;;;;;;5032511;28;20212;-86
2021/08/26 15:17:47;;;;;;;6.97;4.85;;;20.80;78.60;;;;;;5025359;28;20192;-94
2021/08/26 15:20:13;;;;;;;71.25;56.42;;;20.80;79.20;;;;;;5018150;28;20120;-92
2021/08/26 15:22:41;;;;;;;23.25;19.15;;;20.70;79.80;;;;;;5000724;28;20076;-95
2021/08/26 15:25:07;;;;;;;14.15;11.73;;;20.70;80.40;;;;;;5011826;28;20053;-88
2021/08/26 15:27:34;;;;;;;10.13;8.77;;;20.80;80.60;;;;;;5034111;28;20495;-89
2021/08/26 15:30:00;;;;;;;9.30;7.30;;;20.70;80.90;;;;;;5007106;28;20420;-95
2021/08/26 15:32:29;;;;;;;8.48;6.60;;;20.70;80.80;;;;;;5018412;28;20029;-95
2021/08/26 15:34:55;;;;;;;8.15;6.18;;;20.70;81.30;;;;;;5018409;28;20037;-95
2021/08/26 15:37:24;;;;;;;7.00;5.80;;;20.60;81.90;;;;;;5012757;28;20057;-96
2021/08/26 15:39:50;;;;;;;6.75;5.38;;;20.60;81.80;;;;;;5009259;28;20097;-95
2021/08/26 15:42:18;;;;;;;8.40;5.47;;;20.60;82.10;;;;;;5029958;28;20108;-94
2021/08/26 15:44:44;;;;;;;6.63;5.30;;;20.50;82.20;;;;;;5003085;28;20043;-93
2021/08/26 15:47:12;;;;;;;7.57;5.35;;;20.40;82.60;;;;;;5014047;28;20531;-95
2021/08/26 15:49:40;;;;;;;6.88;5.47;;;20.40;82.80;;;;;;5014096;28;20018;-94
2021/08/26 15:52:18;;;;;;;5.90;5.10;;;20.40;83.00;;;;;;5009740;28;20025;-96
2021/08/26 16:02:31;;;;;;;7.47;5.75;;;20.30;84.80;;;;;;5031338;28;20376;-96
2021/08/26 16:04:58;;;;;;;6.63;5.60;;;20.30;85.50;;;;;;4999256;28;20026;-94
2021/08/26 16:07:24;;;;;;;8.10;6.82;;;20.40;85.70;;;;;;4982740;28;20045;-95
2021/08/26 16:09:49;;;;;;;8.25;6.82;;;20.50;86.10;;;;;;5020115;28;20030;-91
2021/08/26 16:12:15;;;;;;;7.50;5.90;;;20.60;85.90;;;;;;5004337;28;20017;-93
2021/08/26 16:14:41;;;;;;;7.13;5.43;;;20.60;84.70;;;;;;5006375;28;20041;-89
2021/08/26 16:17:08;;;;;;;6.72;5.30;;;20.60;84.30;;;;;;4997806;28;20076;-90
2021/08/26 16:19:35;;;;;;;6.95;5.28;;;20.50;84.30;;;;;;4997187;28;20114;-92
2021/08/26 16:22:01;;;;;;;8.15;5.45;;;20.40;84.70;;;;;;4991502;28;20056;-95
2021/08/26 16:24:27;;;;;;;7.53;5.55;;;20.30;86.00;;;;;;4993817;28;20037;-89
2021/08/26 16:26:56;;;;;;;6.28;5.10;;;20.20;86.00;;;;;;4994753;28;20110;-91
2021/08/26 16:29:23;;;;;;;7.03;5.55;;;20.20;86.60;;;;;;4993981;28;20169;-92
2021/08/26 16:31:56;;;;;;;6.18;5.13;;;20.10;86.90;;;;;;4993959;28;20026;-94
2021/08/26 16:34:23;;;;;;;8.43;5.70;;;20.10;86.80;;;;;;4994120;28;20113;-90
2021/08/26 16:36:50;;;;;;;7.35;5.90;;;20.00;88.10;;;;;;4993536;28;20049;-91
2021/08/26 16:39:17;;;;;;;6.72;5.65;;;20.00;89.10;;;;;;4995877;28;20019;-94
2021/08/26 16:41:44;;;;;;;6.80;5.38;;;20.00;89.10;;;;;;4998499;28;20031;-91
2021/08/26 16:44:10;;;;;;;6.22;4.82;;;20.00;89.10;;;;;;4999707;28;20026;-91
2021/08/26 16:46:52;;;;;;;5.95;4.85;;;19.90;88.70;;;;;;5012805;28;20101;-92
2021/08/26 16:49:19;;;;;;;8.20;6.38;;;19.80;90.90;;;;;;5012472;28;20478;-91
2021/08/26 16:51:44;;;;;;;10.25;8.40;;;19.80;90.40;;;;;;5013187;28;20018;-89
2021/08/26 16:54:12;;;;;;;10.48;7.35;;;19.70;91.30;;;;;;5012455;28;20141;-89
2021/08/26 16:56:38;;;;;;;9.05;6.68;;;19.70;91.10;;;;;;5013336;28;20044;-90
2021/08/26 16:59:06;;;;;;;8.52;6.88;;;19.70;91.20;;;;;;5013491;28;20026;-89
2021/08/26 17:01:32;;;;;;;9.35;6.00;;;19.60;91.20;;;;;;5014055;28;20067;-90
2021/08/26 17:03:59;;;;;;;9.35;6.20;;;19.60;91.20;;;;;;5015528;28;20279;-90
2021/08/26 17:06:25;;;;;;;7.22;6.15;;;19.50;91.30;;;;;;5015508;28;20469;-88
2021/08/26 17:08:51;;;;;;;7.00;6.22;;;19.40;91.70;;;;;;5016851;28;20060;-89
2021/08/26 17:11:16;;;;;;;7.78;6.22;;;19.30;91.90;;;;;;5016741;28;20032;-89
2021/08/26 17:13:42;;;;;;;7.75;5.97;;;19.20;92.10;;;;;;5014912;28;20026;-87
2021/08/26 17:16:09;;;;;;;7.45;5.97;;;19.20;92.10;;;;;;5010486;28;20030;-89
2021/08/26 17:18:35;;;;;;;8.07;6.45;;;19.10;92.40;;;;;;4996466;28;20030;-87
2021/08/26 17:21:04;;;;;;;9.13;7.38;;;19.10;93.70;;;;;;4998277;28;20140;-88
2021/08/26 17:23:30;;;;;;;8.75;6.57;;;19.20;94.40;;;;;;4998217;28;20346;-93
2021/08/26 17:25:59;;;;;;;10.38;8.48;;;19.20;93.50;;;;;;4996683;28;20033;-93
2021/08/26 17:28:25;;;;;;;9.60;8.18;;;19.30;93.30;;;;;;4998527;28;20037;-95
2021/08/26 17:30:51;;;;;;;10.10;7.45;;;19.30;93.10;;;;;;4983888;28;20389;-95
2021/08/26 17:35:57;;;;;;;6.85;5.95;;;19.20;93.60;;;;;;5043857;23;20065;-90
2021/08/26 17:38:22;;;;;;;8.43;6.70;;;19.20;93.50;;;;;;4997557;28;20042;-89
2021/08/26 17:40:48;;;;;;;7.05;5.88;;;19.20;94.00;;;;;;4979601;28;20073;-87
2021/08/26 17:43:14;;;;;;;6.43;5.07;;;19.30;93.60;;;;;;4948001;28;20041;-90
2021/08/26 17:46:04;;;;;;;7.38;5.50;;;19.30;93.30;;;;;;4983105;28;20022;-95
2021/08/26 17:48:31;;;;;;;14.80;13.30;;;19.20;92.80;;;;;;4966428;28;20081;-92
2021/08/26 17:50:57;;;;;;;75.70;58.10;;;19.10;93.00;;;;;;4978212;28;20041;-88
2021/08/26 17:53:23;;;;;;;27.70;22.20;;;19.10;93.60;;;;;;4977051;28;20245;-91
2021/08/26 17:55:51;;;;;;;23.67;19.80;;;19.10;93.70;;;;;;4977081;28;20047;-90
2021/08/26 17:58:17;;;;;;;17.77;14.98;;;19.10;93.90;;;;;;4982220;28;20030;-89
2021/08/26 18:00:43;;;;;;;14.60;12.10;;;19.10;93.60;;;;;;4997325;28;20029;-89
2021/08/26 18:03:11;;;;;;;11.13;9.40;;;19.10;93.60;;;;;;4996801;28;20384;-91
2021/08/26 18:05:37;;;;;;;12.13;10.45;;;19.00;93.60;;;;;;5017934;28;20469;-89
2021/08/26 18:08:09;;;;;;;12.80;10.88;;;19.00;93.90;;;;;;5000734;28;20025;-96
2021/08/26 18:10:37;;;;;;;9.95;8.82;;;19.00;94.30;;;;;;4968340;28;20557;-90
2021/08/26 18:13:04;;;;;;;13.40;11.50;;;18.90;94.20;;;;;;4971389;28;20023;-91
2021/08/26 18:15:31;;;;;;;29.80;24.45;;;18.90;94.50;;;;;;4967310;28;20022;-91
2021/08/26 18:17:57;;;;;;;63.63;51.40;;;18.90;95.30;;;;;;4968934;28;20047;-89
2021/08/26 18:20:26;;;;;;;46.58;38.75;;;19.00;95.80;;;;;;4966437;28;20147;-89
2021/08/26 18:22:52;;;;;;;47.08;39.45;;;19.10;95.70;;;;;;4990509;28;20555;-87
2021/08/26 18:25:19;;;;;;;39.22;32.30;;;19.10;96.00;;;;;;4991280;28;20022;-86
2021/08/26 18:27:46;;;;;;;45.00;35.80;;;19.20;95.80;;;;;;4972110;28;20050;-89
2021/08/26 18:30:12;;;;;;;65.65;53.90;;;19.20;95.70;;;;;;4977167;28;20026;-86
2021/08/26 18:32:41;;;;;;;81.07;66.13;;;19.20;95.60;;;;;;4993599;28;20030;-92
2021/08/26 18:35:09;;;;;;;54.40;43.30;;;19.30;96.00;;;;;;4971435;28;20066;-91
2021/08/26 18:37:36;;;;;;;47.58;38.70;;;19.30;95.60;;;;;;4967411;28;20026;-93
2021/08/26 18:40:04;;;;;;;30.80;25.58;;;19.30;95.80;;;;;;4985501;28;20058;-90
2021/08/26 18:42:30;;;;;;;21.35;17.38;;;19.30;95.70;;;;;;4966318;28;20495;-90
2021/08/26 18:45:07;;;;;;;16.60;13.15;;;19.30;95.00;;;;;;4981960;28;20030;-89
2021/08/26 18:47:33;;;;;;;15.23;11.50;;;19.30;94.90;;;;;;4964140;28;20022;-87
2021/08/26 18:49:59;;;;;;;12.98;10.23;;;19.20;94.80;;;;;;4980399;28;20518;-86
2021/08/26 18:52:25;;;;;;;13.18;10.23;;;19.20;95.40;;;;;;4981760;28;20027;-87
2021/08/26 18:54:51;;;;;;;12.13;9.40;;;19.10;95.90;;;;;;4965824;28;20366;-87
2021/08/26 18:57:19;;;;;;;10.55;8.35;;;19.20;95.70;;;;;;4965719;28;20035;-87
2021/08/26 18:59:45;;;;;;;10.63;7.25;;;19.20;95.70;;;;;;4977563;28;20034;-86
2021/08/26 19:02:12;;;;;;;8.73;6.72;;;19.10;95.40;;;;;;4973912;28;20033;-87
2021/08/26 19:04:38;;;;;;;8.48;6.75;;;19.10;95.60;;;;;;4975864;28;20041;-89
2021/08/26 19:07:05;;;;;;;9.43;6.80;;;19.10;95.70;;;;;;4958038;28;20041;-88
2021/08/26 19:09:31;;;;;;;8.63;7.10;;;19.00;95.80;;;;;;4956623;28;20031;-88
2021/08/26 19:11:57;;;;;;;77.68;56.85;;;19.10;95.70;;;;;;4974701;28;20430;-90
2021/08/26 19:14:23;;;;;;;37.75;29.10;;;19.10;95.30;;;;;;4956936;28;20034;-87
2021/08/26 19:16:49;;;;;;;27.38;20.52;;;19.10;95.10;;;;;;4979970;28;20038;-89
2021/08/26 19:19:15;;;;;;;94.28;75.25;;;19.10;95.50;;;;;;4981849;28;20027;-87
2021/08/26 19:21:40;;;;;;;76.22;62.60;;;19.00;96.10;;;;;;4966434;28;20501;-90
2021/08/26 19:24:06;;;;;;;48.50;40.22;;;19.10;96.20;;;;;;4978888;28;20045;-88
2021/08/26 19:26:33;;;;;;;55.22;46.20;;;19.10;96.10;;;;;;4965512;28;20030;-88
2021/08/26 19:28:59;;;;;;;72.07;60.25;;;19.10;95.80;;;;;;4974685;28;20042;-87
2021/08/26 19:31:25;;;;;;;43.47;38.03;;;19.10;96.50;;;;;;4993464;28;20033;-87
2021/08/26 19:33:52;;;;;;;39.65;33.20;;;19.10;96.20;;;;;;4970119;28;20030;-87
2021/08/26 19:36:18;;;;;;;33.33;28.65;;;19.10;96.00;;;;;;4968834;28;20034;-89
2021/08/26 19:38:44;;;;;;;21.67;18.92;;;19.10;96.30;;;;;;4965902;28;20038;-87
2021/08/26 19:41:10;;;;;;;13.88;12.15;;;19.10;96.10;;;;;;4964303;28;20018;-87
2021/08/26 19:43:36;;;;;;;12.27;10.25;;;19.10;95.80;;;;;;4983118;28;20030;-87
2021/08/26 19:46:02;;;;;;;8.73;7.28;;;19.10;95.60;;;;;;4980729;28;20029;-87
2021/08/26 19:48:28;;;;;;;9.43;6.88;;;19.00;95.80;;;;;;4980900;28;20034;-88
2021/08/26 19:50:54;;;;;;;7.45;6.20;;;18.90;95.70;;;;;;4978725;28;20027;-88
2021/08/26 19:53:19;;;;;;;8.00;6.45;;;18.90;95.90;;;;;;4964952;28;20026;-88
2021/08/26 19:55:46;;;;;;;7.25;5.82;;;18.80;96.40;;;;;;4982331;28;20026;-88
2021/08/26 19:58:12;;;;;;;6.57;5.38;;;18.80;96.70;;;;;;4978713;28;20031;-88
2021/08/26 20:00:37;;;;;;;11.30;8.95;;;18.80;96.50;;;;;;4965904;28;20035;-88
2021/08/26 20:03:04;;;;;;;10.98;8.90;;;18.70;96.40;;;;;;4981600;28;20053;-89
2021/08/26 20:05:30;;;;;;;9.57;7.43;;;18.70;96.50;;;;;;4984056;28;20458;-88
2021/08/26 20:07:56;;;;;;;29.75;24.50;;;18.60;96.40;;;;;;4972582;28;20049;-88
2021/08/26 20:10:22;;;;;;;23.75;19.80;;;18.60;96.70;;;;;;4938760;28;20043;-88
2021/08/26 20:12:48;;;;;;;22.10;19.15;;;18.50;96.70;;;;;;4971059;28;20473;-88
2021/08/26 20:15:17;;;;;;;19.67;16.90;;;18.50;96.80;;;;;;4961544;28;20023;-89
2021/08/26 20:17:44;;;;;;;16.92;14.60;;;18.50;96.90;;;;;;4990149;28;20068;-88
2021/08/26 20:20:10;;;;;;;11.25;9.85;;;18.50;97.00;;;;;;4974237;28;20022;-88
2021/08/26 20:22:36;;;;;;;10.77;8.27;;;18.50;97.00;;;;;;4973758;28;20449;-88
2021/08/26 20:25:01;;;;;;;10.65;8.52;;;18.50;97.00;;;;;;4990662;28;20026;-88
2021/08/26 20:27:27;;;;;;;8.73;7.60;;;18.40;97.40;;;;;;4976259;28;20038;-89
2021/08/26 20:29:53;;;;;;;10.05;7.75;;;18.40;98.20;;;;;;4976397;28;20385;-88
2021/08/26 20:32:19;;;;;;;9.88;8.40;;;18.40;98.80;;;;;;4994101;28;20157;-89
2021/08/26 20:34:48;;;;;;;8.20;6.40;;;18.50;98.90;;;;;;4994721;28;20427;-88
2021/08/26 20:37:14;;;;;;;8.63;5.90;;;18.50;98.70;;;;;;4996424;28;20084;-88
2021/08/26 20:39:40;;;;;;;6.38;5.03;;;18.60;97.80;;;;;;4980105;28;20030;-88
2021/08/26 20:42:07;;;;;;;5.40;4.63;;;18.50;97.40;;;;;;4997384;28;20081;-88
2021/08/26 20:44:33;;;;;;;7.05;5.13;;;18.50;97.20;;;;;;4997505;28;20022;-88
2021/08/26 20:46:58;;;;;;;7.13;4.75;;;18.50;97.70;;;;;;4979613;28;20519;-89
2021/08/26 20:49:24;;;;;;;6.38;5.20;;;18.50;97.70;;;;;;4979867;28;20393;-88
2021/08/26 20:51:50;;;;;;;6.80;5.47;;;18.50;98.30;;;;;;4979828;28;20033;-88
2021/08/26 20:54:16;;;;;;;6.38;4.93;;;18.50;98.70;;;;;;4996197;28;20367;-87
2021/08/26 20:56:41;;;;;;;7.70;5.78;;;18.60;98.60;;;;;;4995824;28;20034;-88
2021/08/26 20:59:07;;;;;;;9.63;7.25;;;18.60;97.70;;;;;;4996240;28;20035;-89
2021/08/26 21:01:33;;;;;;;8.80;7.00;;;18.60;97.30;;;;;;4996986;28;20037;-88
2021/08/26 21:03:59;;;;;;;15.95;13.13;;;18.60;97.20;;;;;;4996720;28;20616;-87
2021/08/26 21:06:25;;;;;;;34.97;29.27;;;18.60;97.60;;;;;;4995682;28;20058;-88
2021/08/26 21:08:51;;;;;;;19.73;16.35;;;18.60;97.70;;;;;;4979776;28;20137;-88
2021/08/26 21:11:17;;;;;;;13.18;11.23;;;18.50;97.10;;;;;;4979666;28;20027;-88
2021/08/26 21:13:42;;;;;;;9.70;8.05;;;18.60;96.70;;;;;;4979216;28;20378;-88
2021/08/26 21:16:08;;;;;;;10.75;8.90;;;18.60;96.40;;;;;;4996729;28;20034;-89
2021/08/26 21:18:34;;;;;;;11.13;8.90;;;18.50;96.60;;;;;;4979526;28;20391;-88
2021/08/26 21:21:01;;;;;;;7.97;6.82;;;18.50;96.80;;;;;;4997603;28;20027;-88
2021/08/26 21:23:29;;;;;;;9.75;7.60;;;18.50;96.60;;;;;;4963295;28;20081;-89
2021/08/26 21:25:55;;;;;;;8.55;6.97;;;18.50;96.80;;;;;;4979021;28;20023;-89
2021/08/26 21:28:21;;;;;;;7.07;6.03;;;18.60;96.80;;;;;;4996613;28;20096;-88
2021/08/26 21:30:47;;;;;;;7.00;5.82;;;18.60;96.50;;;;;;4996752;28;20026;-89
2021/08/26 21:33:18;;;;;;;6.15;5.13;;;18.50;96.40;;;;;;4979581;28;20042;-88
2021/08/26 21:35:46;;;;;;;6.30;5.03;;;18.50;96.40;;;;;;4978985;28;20055;-88
2021/08/26 21:38:12;;;;;;;6.50;5.40;;;18.50;96.40;;;;;;4979370;28;20035;-88
2021/08/26 21:40:38;;;;;;;8.27;5.50;;;18.50;96.50;;;;;;4979166;28;20054;-88
2021/08/26 21:43:04;;;;;;;6.55;5.22;;;18.50;96.70;;;;;;4978849;28;20631;-88
2021/08/26 21:45:30;;;;;;;6.68;5.40;;;18.50;97.00;;;;;;4978947;28;20437;-88
2021/08/26 21:47:56;;;;;;;7.10;5.32;;;18.50;97.30;;;;;;4993544;28;20098;-88
2021/08/26 21:50:22;;;;;;;7.80;6.30;;;18.40;98.10;;;;;;4993866;28;20034;-89
2021/08/26 21:52:48;;;;;;;10.15;6.18;;;18.40;99.10;;;;;;4978955;28;20081;-89
2021/08/26 21:55:16;;;;;;;7.70;6.13;;;18.50;98.80;;;;;;4996381;28;20508;-89
2021/08/26 21:57:43;;;;;;;8.10;5.63;;;18.50;98.70;;;;;;4995727;28;20102;-88
2021/08/26 22:00:12;;;;;;;6.47;5.15;;;18.50;98.40;;;;;;4995017;28;20085;-89
2021/08/26 22:02:38;;;;;;;7.28;5.53;;;18.50;98.10;;;;;;4979305;28;20072;-90
2021/08/26 22:05:04;;;;;;;6.25;4.85;;;18.50;97.90;;;;;;4994803;28;20483;-89
2021/08/26 22:07:29;;;;;;;6.88;5.65;;;18.50;97.90;;;;;;4977306;28;20053;-89
2021/08/26 22:09:55;;;;;;;7.88;6.38;;;18.50;98.30;;;;;;4964220;28;20478;-89
2021/08/26 22:12:21;;;;;;;7.80;6.13;;;18.50;98.80;;;;;;4958927;28;20034;-89
2021/08/26 22:14:48;;;;;;;33.28;25.80;;;18.60;98.90;;;;;;4958943;28;20423;-89
2021/08/26 22:17:15;;;;;;;41.08;32.63;;;18.60;99.00;;;;;;4975215;28;20050;-89
2021/08/26 22:19:40;;;;;;;64.57;51.72;;;18.60;99.10;;;;;;4946529;29;20039;-90
2021/08/26 22:22:11;;;;;;;108.50;90.32;;;18.70;98.60;;;;;;4942567;28;20471;-90
2021/08/26 22:24:41;;;;;;;153.80;126.28;;;18.70;98.80;;;;;;4976487;28;20019;-91
2021/08/26 22:27:08;;;;;;;147.38;124.05;;;18.70;99.10;;;;;;4958847;28;20034;-89
2021/08/26 22:29:35;;;;;;;86.93;73.97;;;18.80;99.10;;;;;;4959081;28;20034;-88
2021/08/26 22:32:03;;;;;;;57.30;47.28;;;18.80;98.30;;;;;;4942990;28;20536;-89
2021/08/26 22:34:29;;;;;;;40.05;33.38;;;18.80;98.00;;;;;;4959160;28;20051;-89
2021/08/26 22:36:55;;;;;;;27.70;22.80;;;18.80;97.70;;;;;;4959008;28;20490;-88
2021/08/26 22:39:21;;;;;;;20.08;17.33;;;18.80;97.90;;;;;;4958874;28;20031;-88
2021/08/26 22:41:46;;;;;;;18.88;14.85;;;18.70;97.70;;;;;;4958588;28;20045;-87
2021/08/26 22:44:13;;;;;;;15.45;12.73;;;18.70;97.80;;;;;;4976145;28;20054;-88
2021/08/26 22:46:40;;;;;;;12.07;10.70;;;18.60;97.90;;;;;;4976763;28;20038;-87
2021/08/26 22:49:06;;;;;;;11.60;9.00;;;18.70;98.10;;;;;;4959197;28;20089;-88
2021/08/26 22:51:33;;;;;;;8.75;7.55;;;18.70;97.50;;;;;;4947525;29;20027;-89
2021/08/26 22:54:01;;;;;;;7.63;6.60;;;18.60;97.50;;;;;;4939642;29;20027;-88
2021/08/26 22:56:31;;;;;;;8.10;6.90;;;18.60;97.40;;;;;;4956786;29;20031;-88
2021/08/26 22:59:01;;;;;;;;;;;18.60;97.90;;;;;;4940089;29;20023;-88
2021/08/26 23:01:27;;;;;;;7.95;6.32;;;18.50;99.90;;;;;;4955574;28;19946;-87
2021/08/26 23:03:54;;;;;;;9.48;7.72;;;18.50;98.30;;;;;;4956742;29;20379;-87
2021/08/26 23:06:20;;;;;;;9.65;7.25;;;18.50;98.70;;;;;;4956884;28;20031;-87
2021/08/26 23:08:47;;;;;;;11.27;7.78;;;18.50;98.80;;;;;;4939150;29;20039;-86
2021/08/26 23:11:14;;;;;;;9.40;7.90;;;18.60;98.90;;;;;;4939134;29;20167;-87
2021/08/26 23:13:39;;;;;;;9.38;7.93;;;18.60;99.00;;;;;;4939178;29;20454;-89
2021/08/26 23:16:06;;;;;;;8.80;6.80;;;18.60;98.90;;;;;;4939119;29;20031;-89
2021/08/26 23:18:32;;;;;;;7.65;6.43;;;18.60;98.50;;;;;;4955060;28;20070;-88
2021/08/26 23:20:58;;;;;;;7.88;6.45;;;18.60;98.20;;;;;;4940987;29;20027;-88
2021/08/26 23:23:24;;;;;;;7.13;5.93;;;18.60;98.10;;;;;;4941338;29;20493;-89
2021/08/26 23:25:50;;;;;;;7.78;6.53;;;18.60;97.80;;;;;;4939546;29;20122;-88
2021/08/26 23:28:16;;;;;;;6.28;5.53;;;18.70;97.70;;;;;;4956453;28;20037;-88
2021/08/26 23:30:41;;;;;;;7.85;6.18;;;18.70;97.70;;;;;;4955307;29;20587;-88
2021/08/26 23:33:07;;;;;;;7.75;6.07;;;18.60;97.60;;;;;;4955956;28;20039;-88
2021/08/26 23:35:33;;;;;;;7.57;6.40;;;18.60;97.40;;;;;;4963914;28;20116;-84
2021/08/26 23:37:58;;;;;;;8.55;6.45;;;18.60;97.30;;;;;;4964445;29;20047;-86
2021/08/26 23:40:24;;;;;;;7.35;6.40;;;18.60;97.40;;;;;;4966664;28;20059;-86
2021/08/26 23:42:50;;;;;;;8.25;6.53;;;18.60;97.50;;;;;;4942960;29;20533;-88
2021/08/26 23:45:16;;;;;;;7.80;6.43;;;18.60;97.40;;;;;;4956412;28;20034;-88
2021/08/26 23:47:42;;;;;;;8.15;6.65;;;18.50;97.40;;;;;;4938543;29;20034;-87
2021/08/26 23:50:08;;;;;;;7.90;6.72;;;18.50;97.40;;;;;;4956472;28;20027;-88
2021/08/26 23:52:34;;;;;;;7.97;6.57;;;18.50;97.50;;;;;;4954315;28;20034;-87
2021/08/26 23:55:00;;;;;;;10.18;7.60;;;18.50;97.50;;;;;;4939598;29;20114;-87
2021/08/26 23:57:26;;;;;;;10.13;7.82;;;18.50;98.20;;;;;;4939475;28;20061;-90
2021/08/26 23:59:51;;;;;;;9.38;7.80;;;18.50;98.60;;;;;;4962879;28;20049;-87
